sensor_id;sensor_type;location;lat;lon;timestamp;pressure;altitude;pressure_sealevel;temperature;humidity
46944;BME280;32678;43.852;25.952;2023-06-10T00:01:19;100560.75;;;25.11;40.75
46944;BME280;32678;43.852;25.952;2023-06-10T00:06:16;100559.25;;;25.26;40.92
46944;BME280;32678;43.852;25.952;2023-06-10T00:11:14;100557.41;;;25.27;41.37
46944;BME280;32678;43.852;25.952;2023-06-10T00:16:10;100564.41;;;25.10;41.97
46944;BME280;32678;43.852;25.952;2023-06-10T00:21:07;100554.28;;;25.31;43.67
46944;BME280;32678;43.852;25.952;2023-06-10T00:26:04;100554.28;;;25.31;44.62
46944;BME280;32678;43.852;25.952;2023-06-10T00:31:02;100549.91;;;25.30;45.32
46944;BME280;32678;43.852;25.952;2023-06-10T00:36:01;100551.38;;;25.42;45.13
46944;BME280;32678;43.852;25.952;2023-06-10T00:40:58;100558.22;;;25.64;44.56
46944;BME280;32678;43.852;25.952;2023-06-10T00:45:55;100563.50;;;25.46;43.43
46944;BME280;32678;43.852;25.952;2023-06-10T00:50:52;100569.47;;;25.68;42.77
46944;BME280;32678;43.852;25.952;2023-06-10T00:55:49;100563.88;;;25.52;42.53
46944;BME280;32678;43.852;25.952;2023-06-10T01:00:46;100561.81;;;24.91;42.72
46944;BME280;32678;43.852;25.952;2023-06-10T01:05:43;100559.03;;;24.64;42.80
46944;BME280;32678;43.852;25.952;2023-06-10T01:10:42;100572.38;;;24.92;42.35
46944;BME280;32678;43.852;25.952;2023-06-10T01:15:39;100566.03;;;24.37;43.37
46944;BME280;32678;43.852;25.952;2023-06-10T01:20:38;100557.81;;;24.48;43.94
46944;BME280;32678;43.852;25.952;2023-06-10T01:25:37;100554.31;;;24.00;45.01
46944;BME280;32678;43.852;25.952;2023-06-10T01:30:36;100549.13;;;24.27;44.46
46944;BME280;32678;43.852;25.952;2023-06-10T01:35:36;100550.19;;;23.67;45.51
46944;BME280;32678;43.852;25.952;2023-06-10T01:40:33;100550.91;;;22.79;48.03
46944;BME280;32678;43.852;25.952;2023-06-10T01:45:31;100549.88;;;22.09;49.80
46944;BME280;32678;43.852;25.952;2023-06-10T01:50:28;100542.00;;;22.07;50.11
46944;BME280;32678;43.852;25.952;2023-06-10T01:55:25;100543.53;;;21.78;50.60
46944;BME280;32678;43.852;25.952;2023-06-10T02:00:21;100544.81;;;21.63;51.41
46944;BME280;32678;43.852;25.952;2023-06-10T02:05:19;100546.38;;;22.08;50.36
46944;BME280;32678;43.852;25.952;2023-06-10T02:10:18;100540.53;;;22.24;50.29
46944;BME280;32678;43.852;25.952;2023-06-10T02:15:14;100548.03;;;22.51;50.43
46944;BME280;32678;43.852;25.952;2023-06-10T02:20:11;100560.03;;;21.94;53.95
46944;BME280;32678;43.852;25.952;2023-06-10T02:25:10;100565.94;;;21.43;55.79
46944;BME280;32678;43.852;25.952;2023-06-10T02:30:07;100563.38;;;21.64;54.48
46944;BME280;32678;43.852;25.952;2023-06-10T02:35:06;100575.91;;;21.84;52.97
46944;BME280;32678;43.852;25.952;2023-06-10T02:40:04;100578.75;;;21.60;53.04
46944;BME280;32678;43.852;25.952;2023-06-10T02:45:03;100599.75;;;22.08;52.06
46944;BME280;32678;43.852;25.952;2023-06-10T02:50:07;100585.56;;;22.70;51.24
46944;BME280;32678;43.852;25.952;2023-06-10T02:55:11;100594.09;;;23.05;51.53
46944;BME280;32678;43.852;25.952;2023-06-10T03:00:14;100583.56;;;23.13;51.60
46944;BME280;32678;43.852;25.952;2023-06-10T03:05:12;100594.56;;;23.20;51.19
46944;BME280;32678;43.852;25.952;2023-06-10T03:10:14;100608.47;;;23.14;51.16
46944;BME280;32678;43.852;25.952;2023-06-10T03:15:12;100600.22;;;23.36;51.04
46944;BME280;32678;43.852;25.952;2023-06-10T03:20:11;100602.44;;;23.52;50.43
46944;BME280;32678;43.852;25.952;2023-06-10T03:25:10;100589.06;;;23.61;49.79
46944;BME280;32678;43.852;25.952;2023-06-10T03:30:13;100608.06;;;23.49;50.17
46944;BME280;32678;43.852;25.952;2023-06-10T03:35:12;100601.81;;;23.39;50.36
46944;BME280;32678;43.852;25.952;2023-06-10T03:40:09;100598.38;;;22.87;51.71
46944;BME280;32678;43.852;25.952;2023-06-10T03:45:08;100601.38;;;22.20;53.71
46944;BME280;32678;43.852;25.952;2023-06-10T03:50:06;100594.66;;;21.62;55.65
46944;BME280;32678;43.852;25.952;2023-06-10T03:55:04;100598.94;;;21.31;56.64
46944;BME280;32678;43.852;25.952;2023-06-10T04:00:03;100595.56;;;21.29;56.91
46944;BME280;32678;43.852;25.952;2023-06-10T04:05:10;100603.25;;;20.88;57.97
46944;BME280;32678;43.852;25.952;2023-06-10T04:10:08;100619.97;;;20.79;58.27
46944;BME280;32678;43.852;25.952;2023-06-10T04:15:08;100615.66;;;21.00;57.16
46944;BME280;32678;43.852;25.952;2023-06-10T04:20:06;100624.34;;;21.02;57.63
46944;BME280;32678;43.852;25.952;2023-06-10T04:25:08;100622.56;;;21.36;56.04
46944;BME280;32678;43.852;25.952;2023-06-10T04:30:06;100621.34;;;21.51;55.23
46944;BME280;32678;43.852;25.952;2023-06-10T04:35:05;100615.66;;;21.33;55.69
46944;BME280;32678;43.852;25.952;2023-06-10T04:40:06;100620.25;;;21.31;55.87
46944;BME280;32678;43.852;25.952;2023-06-10T04:45:04;100609.34;;;21.12;56.36
46944;BME280;32678;43.852;25.952;2023-06-10T04:50:02;100613.09;;;20.98;56.64
46944;BME280;32678;43.852;25.952;2023-06-10T04:54:59;100609.00;;;21.16;56.89
46944;BME280;32678;43.852;25.952;2023-06-10T04:59:56;100616.09;;;21.60;56.20
46944;BME280;32678;43.852;25.952;2023-06-10T05:04:53;100606.66;;;21.56;56.48
46944;BME280;32678;43.852;25.952;2023-06-10T05:09:51;100605.31;;;21.73;57.22
46944;BME280;32678;43.852;25.952;2023-06-10T05:14:48;100614.84;;;21.87;56.13
46944;BME280;32678;43.852;25.952;2023-06-10T05:19:45;100617.63;;;21.85;56.86
46944;BME280;32678;43.852;25.952;2023-06-10T05:24:44;100613.28;;;21.84;56.44
46944;BME280;32678;43.852;25.952;2023-06-10T05:29:40;100610.34;;;21.98;56.32
46944;BME280;32678;43.852;25.952;2023-06-10T05:34:40;100616.41;;;21.89;56.12
46944;BME280;32678;43.852;25.952;2023-06-10T05:39:36;100617.34;;;22.11;55.21
46944;BME280;32678;43.852;25.952;2023-06-10T05:44:34;100625.81;;;22.16;56.26
46944;BME280;32678;43.852;25.952;2023-06-10T05:49:31;100624.34;;;22.23;56.85
46944;BME280;32678;43.852;25.952;2023-06-10T05:54:28;100633.78;;;22.27;57.09
46944;BME280;32678;43.852;25.952;2023-06-10T05:59:26;100636.59;;;22.46;56.18
46944;BME280;32678;43.852;25.952;2023-06-10T06:04:23;100635.38;;;22.50;56.21
46944;BME280;32678;43.852;25.952;2023-06-10T06:09:20;100630.84;;;22.30;57.35
46944;BME280;32678;43.852;25.952;2023-06-10T06:14:17;100642.94;;;22.13;57.77
46944;BME280;32678;43.852;25.952;2023-06-10T06:19:14;100645.63;;;22.34;57.24
46944;BME280;32678;43.852;25.952;2023-06-10T06:24:12;100643.38;;;22.50;55.68
46944;BME280;32678;43.852;25.952;2023-06-10T06:29:09;100646.44;;;22.45;55.76
46944;BME280;32678;43.852;25.952;2023-06-10T06:34:06;100645.31;;;22.48;55.84
46944;BME280;32678;43.852;25.952;2023-06-10T06:39:03;100613.66;;;22.64;54.58
46944;BME280;32678;43.852;25.952;2023-06-10T06:44:03;100629.78;;;22.74;54.88
46944;BME280;32678;43.852;25.952;2023-06-10T06:49:05;100630.97;;;22.81;54.59
46944;BME280;32678;43.852;25.952;2023-06-10T06:54:02;100634.56;;;22.70;55.06
46944;BME280;32678;43.852;25.952;2023-06-10T06:59:01;100638.69;;;22.63;55.85
46944;BME280;32678;43.852;25.952;2023-06-10T07:03:59;100626.63;;;22.69;56.03
46944;BME280;32678;43.852;25.952;2023-06-10T07:08:56;100627.78;;;22.87;55.21
46944;BME280;32678;43.852;25.952;2023-06-10T07:13:52;100625.66;;;23.11;53.62
46944;BME280;32678;43.852;25.952;2023-06-10T07:18:49;100624.41;;;23.15;54.09
46944;BME280;32678;43.852;25.952;2023-06-10T07:23:47;100616.97;;;22.98;55.36
46944;BME280;32678;43.852;25.952;2023-06-10T07:28:44;100621.69;;;22.85;56.02
46944;BME280;32678;43.852;25.952;2023-06-10T07:33:40;100620.97;;;22.83;55.13
46944;BME280;32678;43.852;25.952;2023-06-10T07:38:37;100619.88;;;22.85;54.58
46944;BME280;32678;43.852;25.952;2023-06-10T07:43:35;100614.53;;;23.16;54.17
46944;BME280;32678;43.852;25.952;2023-06-10T07:48:32;100628.78;;;23.56;53.45
46944;BME280;32678;43.852;25.952;2023-06-10T07:53:28;100622.19;;;23.30;54.65
46944;BME280;32678;43.852;25.952;2023-06-10T07:58:25;100620.88;;;23.15;54.53
46944;BME280;32678;43.852;25.952;2023-06-10T08:03:23;100618.56;;;23.31;54.09
46944;BME280;32678;43.852;25.952;2023-06-10T08:08:20;100621.75;;;23.55;53.35
46944;BME280;32678;43.852;25.952;2023-06-10T08:13:17;100618.06;;;23.56;53.92
46944;BME280;32678;43.852;25.952;2023-06-10T08:18:17;100610.78;;;23.68;53.93
46944;BME280;32678;43.852;25.952;2023-06-10T08:23:15;100613.44;;;23.58;54.29
46944;BME280;32678;43.852;25.952;2023-06-10T08:28:12;100610.25;;;23.74;54.12
46944;BME280;32678;43.852;25.952;2023-06-10T08:33:09;100617.88;;;23.98;53.04
46944;BME280;32678;43.852;25.952;2023-06-10T08:38:07;100613.78;;;23.84;52.14
46944;BME280;32678;43.852;25.952;2023-06-10T08:43:08;100613.09;;;24.01;51.58
46944;BME280;32678;43.852;25.952;2023-06-10T08:48:07;100605.47;;;23.97;51.44
46944;BME280;32678;43.852;25.952;2023-06-10T08:53:07;100611.97;;;24.13;51.43
46944;BME280;32678;43.852;25.952;2023-06-10T08:58:04;100600.25;;;24.05;52.10
46944;BME280;32678;43.852;25.952;2023-06-10T09:03:02;100593.06;;;24.15;51.81
46944;BME280;32678;43.852;25.952;2023-06-10T09:08:01;100596.34;;;24.38;50.95
46944;BME280;32678;43.852;25.952;2023-06-10T09:12:58;100593.94;;;24.35;51.03
46944;BME280;32678;43.852;25.952;2023-06-10T09:17:55;100591.97;;;24.46;51.00
46944;BME280;32678;43.852;25.952;2023-06-10T09:22:52;100581.09;;;24.57;50.60
46944;BME280;32678;43.852;25.952;2023-06-10T09:27:52;100584.19;;;24.63;51.03
46944;BME280;32678;43.852;25.952;2023-06-10T09:32:50;100585.13;;;24.71;50.55
46944;BME280;32678;43.852;25.952;2023-06-10T09:37:49;100574.38;;;24.90;50.68
46944;BME280;32678;43.852;25.952;2023-06-10T09:42:51;100560.97;;;25.18;49.97
46944;BME280;32678;43.852;25.952;2023-06-10T09:47:51;100564.13;;;25.40;49.12
46944;BME280;32678;43.852;25.952;2023-06-10T09:52:49;100571.09;;;25.51;47.90
46944;BME280;32678;43.852;25.952;2023-06-10T09:57:49;100570.41;;;25.59;47.25
46944;BME280;32678;43.852;25.952;2023-06-10T10:02:50;100570.66;;;25.83;46.85
46944;BME280;32678;43.852;25.952;2023-06-10T10:07:48;100562.41;;;26.20;46.21
46944;BME280;32678;43.852;25.952;2023-06-10T10:12:45;100555.59;;;26.43;45.75
46944;BME280;32678;43.852;25.952;2023-06-10T10:17:44;100552.63;;;26.54;44.04
46944;BME280;32678;43.852;25.952;2023-06-10T10:22:45;100544.78;;;26.61;44.70
46944;BME280;32678;43.852;25.952;2023-06-10T10:27:47;100546.00;;;26.92;43.92
46944;BME280;32678;43.852;25.952;2023-06-10T10:32:50;100543.50;;;26.99;42.87
46944;BME280;32678;43.852;25.952;2023-06-10T10:37:49;100532.31;;;27.20;40.39
46944;BME280;32678;43.852;25.952;2023-06-10T10:42:47;100509.28;;;27.17;38.28
46944;BME280;32678;43.852;25.952;2023-06-10T10:47:44;100515.13;;;27.12;39.53
46944;BME280;32678;43.852;25.952;2023-06-10T10:52:52;100513.00;;;27.32;40.27
46944;BME280;32678;43.852;25.952;2023-06-10T10:57:53;100515.66;;;27.74;40.39
46944;BME280;32678;43.852;25.952;2023-06-10T11:02:52;100506.41;;;27.93;40.14
46944;BME280;32678;43.852;25.952;2023-06-10T11:07:54;100508.41;;;28.07;39.37
46944;BME280;32678;43.852;25.952;2023-06-10T11:12:52;100504.06;;;28.22;39.38
46944;BME280;32678;43.852;25.952;2023-06-10T11:18:06;100489.38;;;28.33;36.80
46944;BME280;32678;43.852;25.952;2023-06-10T11:23:05;100481.91;;;28.51;35.23
46944;BME280;32678;43.852;25.952;2023-06-10T11:28:02;100481.03;;;28.67;34.79
46944;BME280;32678;43.852;25.952;2023-06-10T11:33:14;100472.78;;;28.76;33.41
46944;BME280;32678;43.852;25.952;2023-06-10T11:38:15;100474.91;;;28.89;33.33
46944;BME280;32678;43.852;25.952;2023-06-10T11:43:14;100472.19;;;28.89;32.33
46944;BME280;32678;43.852;25.952;2023-06-10T11:48:11;100463.03;;;28.98;32.45
46944;BME280;32678;43.852;25.952;2023-06-10T11:53:08;100457.63;;;29.06;32.48
46944;BME280;32678;43.852;25.952;2023-06-10T11:58:12;100447.44;;;29.16;32.09
46944;BME280;32678;43.852;25.952;2023-06-10T12:03:09;100443.66;;;29.34;31.87
46944;BME280;32678;43.852;25.952;2023-06-10T12:08:09;100449.56;;;29.29;30.32
46944;BME280;32678;43.852;25.952;2023-06-10T12:13:06;100446.34;;;28.56;29.68
46944;BME280;32678;43.852;25.952;2023-06-10T12:18:04;100441.81;;;28.40;30.52
46944;BME280;32678;43.852;25.952;2023-06-10T12:23:08;100433.09;;;28.38;31.16
46944;BME280;32678;43.852;25.952;2023-06-10T12:28:05;100434.19;;;28.60;31.37
46944;BME280;32678;43.852;25.952;2023-06-10T12:33:02;100420.53;;;28.61;29.85
46944;BME280;32678;43.852;25.952;2023-06-10T12:38:00;100425.47;;;28.41;30.30
46944;BME280;32678;43.852;25.952;2023-06-10T12:42:58;100414.31;;;28.53;30.59
46944;BME280;32678;43.852;25.952;2023-06-10T12:48:03;100409.34;;;28.25;30.21
46944;BME280;32678;43.852;25.952;2023-06-10T12:53:02;100409.69;;;28.22;31.51
46944;BME280;32678;43.852;25.952;2023-06-10T12:58:07;100401.81;;;28.05;31.57
46944;BME280;32678;43.852;25.952;2023-06-10T13:03:13;100375.19;;;28.10;32.23
46944;BME280;32678;43.852;25.952;2023-06-10T13:08:11;100407.41;;;28.50;31.82
46944;BME280;32678;43.852;25.952;2023-06-10T13:13:08;100397.91;;;28.15;32.26
46944;BME280;32678;43.852;25.952;2023-06-10T13:18:05;100396.06;;;28.16;32.55
46944;BME280;32678;43.852;25.952;2023-06-10T13:23:02;100393.72;;;28.60;31.62
46944;BME280;32678;43.852;25.952;2023-06-10T13:28:00;100389.94;;;28.30;32.15
46944;BME280;32678;43.852;25.952;2023-06-10T13:32:57;100386.44;;;28.29;32.13
46944;BME280;32678;43.852;25.952;2023-06-10T13:37:54;100378.16;;;28.39;32.40
46944;BME280;32678;43.852;25.952;2023-06-10T13:42:51;100370.91;;;28.70;31.69
46944;BME280;32678;43.852;25.952;2023-06-10T13:47:51;100375.94;;;28.81;30.82
46944;BME280;32678;43.852;25.952;2023-06-10T13:52:49;100371.81;;;28.63;31.36
46944;BME280;32678;43.852;25.952;2023-06-10T13:57:46;100367.72;;;28.67;32.00
46944;BME280;32678;43.852;25.952;2023-06-10T14:02:43;100351.38;;;28.99;31.34
46944;BME280;32678;43.852;25.952;2023-06-10T14:07:41;100345.63;;;29.25;31.28
46944;BME280;32678;43.852;25.952;2023-06-10T14:12:38;100343.72;;;29.56;30.44
46944;BME280;32678;43.852;25.952;2023-06-10T14:17:35;100341.91;;;29.26;31.12
46944;BME280;32678;43.852;25.952;2023-06-10T14:22:32;100345.03;;;29.15;30.75
46944;BME280;32678;43.852;25.952;2023-06-10T14:27:30;100342.50;;;28.91;30.37
46944;BME280;32678;43.852;25.952;2023-06-10T14:32:27;100329.78;;;28.99;29.90
46944;BME280;32678;43.852;25.952;2023-06-10T14:37:24;100335.31;;;28.83;30.72
46944;BME280;32678;43.852;25.952;2023-06-10T14:42:21;100314.53;;;28.53;31.63
46944;BME280;32678;43.852;25.952;2023-06-10T14:47:18;100330.31;;;28.72;31.76
46944;BME280;32678;43.852;25.952;2023-06-10T14:52:15;100319.47;;;28.49;32.68
46944;BME280;32678;43.852;25.952;2023-06-10T14:57:12;100322.06;;;28.96;31.68
46944;BME280;32678;43.852;25.952;2023-06-10T15:02:09;100307.59;;;28.58;32.45
46944;BME280;32678;43.852;25.952;2023-06-10T15:07:07;100314.03;;;28.88;31.42
46944;BME280;32678;43.852;25.952;2023-06-10T15:12:06;100314.00;;;29.11;31.43
46944;BME280;32678;43.852;25.952;2023-06-10T15:17:05;100312.25;;;29.18;30.90
46944;BME280;32678;43.852;25.952;2023-06-10T15:22:03;100313.06;;;29.26;30.89
46944;BME280;32678;43.852;25.952;2023-06-10T15:27:01;100301.00;;;29.14;31.15
46944;BME280;32678;43.852;25.952;2023-06-10T15:31:59;100318.50;;;28.96;31.18
46944;BME280;32678;43.852;25.952;2023-06-10T15:36:59;100317.50;;;28.97;31.67
46944;BME280;32678;43.852;25.952;2023-06-10T15:41:57;100313.28;;;28.94;31.24
46944;BME280;32678;43.852;25.952;2023-06-10T15:46:54;100313.47;;;28.93;32.48
46944;BME280;32678;43.852;25.952;2023-06-10T15:51:54;100320.16;;;28.74;31.74
46944;BME280;32678;43.852;25.952;2023-06-10T15:56:51;100319.19;;;28.67;31.59
46944;BME280;32678;43.852;25.952;2023-06-10T16:01:48;100310.88;;;28.99;31.45
46944;BME280;32678;43.852;25.952;2023-06-10T16:06:46;100308.97;;;29.08;30.72
46944;BME280;32678;43.852;25.952;2023-06-10T16:11:44;100309.63;;;29.10;30.01
46944;BME280;32678;43.852;25.952;2023-06-10T16:16:42;100303.34;;;29.17;29.95
46944;BME280;32678;43.852;25.952;2023-06-10T16:21:42;100310.41;;;29.18;29.96
46944;BME280;32678;43.852;25.952;2023-06-10T16:26:40;100304.09;;;29.26;30.01
46944;BME280;32678;43.852;25.952;2023-06-10T16:31:38;100313.59;;;29.45;29.70
46944;BME280;32678;43.852;25.952;2023-06-10T16:36:35;100316.97;;;29.47;31.40
46944;BME280;32678;43.852;25.952;2023-06-10T16:41:32;100316.84;;;29.40;34.41
46944;BME280;32678;43.852;25.952;2023-06-10T16:46:30;100335.19;;;29.45;35.90
46944;BME280;32678;43.852;25.952;2023-06-10T16:51:27;100325.06;;;29.47;35.87
46944;BME280;32678;43.852;25.952;2023-06-10T16:56:24;100322.41;;;29.39;35.48
46944;BME280;32678;43.852;25.952;2023-06-10T17:01:20;100346.16;;;29.43;34.77
46944;BME280;32678;43.852;25.952;2023-06-10T17:06:18;100351.03;;;29.48;34.99
46944;BME280;32678;43.852;25.952;2023-06-10T17:11:18;100349.63;;;29.52;35.46
46944;BME280;32678;43.852;25.952;2023-06-10T17:16:15;100359.88;;;29.42;33.99
46944;BME280;32678;43.852;25.952;2023-06-10T17:21:12;100372.25;;;29.28;35.46
46944;BME280;32678;43.852;25.952;2023-06-10T17:26:10;100365.72;;;29.22;36.70
46944;BME280;32678;43.852;25.952;2023-06-10T17:31:08;100375.50;;;29.01;35.81
46944;BME280;32678;43.852;25.952;2023-06-10T17:36:05;100367.63;;;28.91;34.38
46944;BME280;32678;43.852;25.952;2023-06-10T17:41:02;100374.41;;;28.87;34.89
46944;BME280;32678;43.852;25.952;2023-06-10T17:46:00;100379.28;;;28.83;35.23
46944;BME280;32678;43.852;25.952;2023-06-10T17:50:58;100381.66;;;28.87;35.65
46944;BME280;32678;43.852;25.952;2023-06-10T17:55:54;100381.03;;;28.76;35.41
46944;BME280;32678;43.852;25.952;2023-06-10T18:00:51;100372.56;;;28.79;35.10
46944;BME280;32678;43.852;25.952;2023-06-10T18:05:49;100381.28;;;28.90;34.91
46944;BME280;32678;43.852;25.952;2023-06-10T18:10:46;100380.97;;;28.84;35.02
46944;BME280;32678;43.852;25.952;2023-06-10T18:15:44;100381.66;;;28.87;35.10
46944;BME280;32678;43.852;25.952;2023-06-10T18:20:41;100393.53;;;29.00;35.28
46944;BME280;32678;43.852;25.952;2023-06-10T18:25:43;100394.94;;;28.96;36.31
46944;BME280;32678;43.852;25.952;2023-06-10T18:30:40;100395.69;;;28.82;36.20
46944;BME280;32678;43.852;25.952;2023-06-10T18:35:37;100430.41;;;28.85;36.29
46944;BME280;32678;43.852;25.952;2023-06-10T18:40:34;100418.44;;;28.32;35.36
46944;BME280;32678;43.852;25.952;2023-06-10T18:45:32;100429.91;;;28.10;35.59
46944;BME280;32678;43.852;25.952;2023-06-10T18:50:29;100427.75;;;27.73;35.24
46944;BME280;32678;43.852;25.952;2023-06-10T18:55:26;100432.63;;;27.62;35.75
46944;BME280;32678;43.852;25.952;2023-06-10T19:00:24;100441.75;;;27.61;36.01
46944;BME280;32678;43.852;25.952;2023-06-10T19:05:22;100435.50;;;27.60;36.17
46944;BME280;32678;43.852;25.952;2023-06-10T19:10:19;100434.00;;;27.74;35.78
46944;BME280;32678;43.852;25.952;2023-06-10T19:15:17;100441.56;;;27.62;36.07
46944;BME280;32678;43.852;25.952;2023-06-10T19:20:16;100448.72;;;27.29;36.84
46944;BME280;32678;43.852;25.952;2023-06-10T19:25:13;100458.09;;;27.09;37.66
46944;BME280;32678;43.852;25.952;2023-06-10T19:30:11;100438.16;;;26.44;38.44
46944;BME280;32678;43.852;25.952;2023-06-10T19:35:08;100460.28;;;26.38;38.78
46944;BME280;32678;43.852;25.952;2023-06-10T19:40:06;100455.50;;;26.57;38.58
46944;BME280;32678;43.852;25.952;2023-06-10T19:45:04;100461.25;;;26.62;39.13
46944;BME280;32678;43.852;25.952;2023-06-10T19:50:05;100464.59;;;26.64;40.05
46944;BME280;32678;43.852;25.952;2023-06-10T19:55:03;100458.53;;;26.88;39.52
46944;BME280;32678;43.852;25.952;2023-06-10T20:00:00;100454.91;;;27.05;39.02
46944;BME280;32678;43.852;25.952;2023-06-10T20:04:57;100465.31;;;27.00;39.34
46944;BME280;32678;43.852;25.952;2023-06-10T20:09:54;100461.63;;;27.09;39.19
46944;BME280;32678;43.852;25.952;2023-06-10T20:14:51;100461.91;;;26.98;39.35
46944;BME280;32678;43.852;25.952;2023-06-10T20:19:48;100460.94;;;27.07;39.26
46944;BME280;32678;43.852;25.952;2023-06-10T20:24:51;100458.75;;;27.03;39.33
46944;BME280;32678;43.852;25.952;2023-06-10T20:29:48;100452.00;;;26.99;39.54
46944;BME280;32678;43.852;25.952;2023-06-10T20:34:45;100456.13;;;26.85;39.60
46944;BME280;32678;43.852;25.952;2023-06-10T20:39:42;100457.72;;;26.88;39.65
46944;BME280;32678;43.852;25.952;2023-06-10T20:44:40;100447.00;;;26.78;39.67
46944;BME280;32678;43.852;25.952;2023-06-10T20:49:39;100446.34;;;26.76;39.70
46944;BME280;32678;43.852;25.952;2023-06-10T20:54:36;100456.88;;;26.87;39.52
46944;BME280;32678;43.852;25.952;2023-06-10T20:59:33;100438.41;;;26.66;39.95
46944;BME280;32678;43.852;25.952;2023-06-10T21:04:31;100452.31;;;26.88;39.51
46944;BME280;32678;43.852;25.952;2023-06-10T21:09:28;100451.00;;;26.92;39.70
46944;BME280;32678;43.852;25.952;2023-06-10T21:14:25;100453.94;;;26.81;40.83
46944;BME280;32678;43.852;25.952;2023-06-10T21:19:22;100433.25;;;26.73;42.94
46944;BME280;32678;43.852;25.952;2023-06-10T21:24:21;100444.97;;;27.06;43.62
46944;BME280;32678;43.852;25.952;2023-06-10T21:29:18;100441.63;;;27.12;44.27
46944;BME280;32678;43.852;25.952;2023-06-10T21:34:15;100436.06;;;27.05;44.56
46944;BME280;32678;43.852;25.952;2023-06-10T21:39:12;100438.75;;;27.13;44.36
46944;BME280;32678;43.852;25.952;2023-06-10T21:44:09;100434.38;;;27.12;43.80
46944;BME280;32678;43.852;25.952;2023-06-10T21:49:06;100440.94;;;27.02;43.39
46944;BME280;32678;43.852;25.952;2023-06-10T21:54:03;100441.44;;;27.13;42.70
46944;BME280;32678;43.852;25.952;2023-06-10T21:59:06;100439.44;;;27.15;42.41
46944;BME280;32678;43.852;25.952;2023-06-10T22:04:04;100435.88;;;26.65;46.52
46944;BME280;32678;43.852;25.952;2023-06-10T22:09:01;100435.22;;;26.11;48.73
46944;BME280;32678;43.852;25.952;2023-06-10T22:13:57;100425.25;;;26.55;47.20
46944;BME280;32678;43.852;25.952;2023-06-10T22:18:54;100425.69;;;26.43;47.64
46944;BME280;32678;43.852;25.952;2023-06-10T22:23:54;100422.78;;;26.70;46.77
46944;BME280;32678;43.852;25.952;2023-06-10T22:28:51;100412.31;;;26.59;45.70
46944;BME280;32678;43.852;25.952;2023-06-10T22:33:48;100418.25;;;26.11;48.53
46944;BME280;32678;43.852;25.952;2023-06-10T22:38:45;100419.34;;;25.74;50.66
46944;BME280;32678;43.852;25.952;2023-06-10T22:43:43;100417.97;;;25.70;51.02
46944;BME280;32678;43.852;25.952;2023-06-10T22:48:40;100409.81;;;25.80;50.20
46944;BME280;32678;43.852;25.952;2023-06-10T22:53:37;100413.69;;;25.85;49.40
46944;BME280;32678;43.852;25.952;2023-06-10T22:58:34;100417.97;;;25.70;49.24
46944;BME280;32678;43.852;25.952;2023-06-10T23:03:31;100412.34;;;25.28;50.16
46944;BME280;32678;43.852;25.952;2023-06-10T23:08:28;100416.66;;;25.21;51.12
46944;BME280;32678;43.852;25.952;2023-06-10T23:13:25;100413.47;;;24.53;52.75
46944;BME280;32678;43.852;25.952;2023-06-10T23:18:24;100403.47;;;24.55;52.46
46944;BME280;32678;43.852;25.952;2023-06-10T23:23:22;100400.94;;;24.17;53.25
46944;BME280;32678;43.852;25.952;2023-06-10T23:28:28;100382.53;;;23.75;54.06
46944;BME280;32678;43.852;25.952;2023-06-10T23:33:25;100397.59;;;24.42;52.68
46944;BME280;32678;43.852;25.952;2023-06-10T23:38:24;100399.34;;;24.88;51.35
46944;BME280;32678;43.852;25.952;2023-06-10T23:43:21;100398.25;;;25.44;49.51
46944;BME280;32678;43.852;25.952;2023-06-10T23:48:18;100398.31;;;24.99;49.73
46944;BME280;32678;43.852;25.952;2023-06-10T23:53:15;100399.66;;;24.58;51.23
46944;BME280;32678;43.852;25.952;2023-06-10T23:58:12;100392.91;;;24.07;52.60
